Time;durP1;ratioP1;P1;durP2;ratioP2;P2;SDS_P1;SDS_P2;PMS_P1;PMS_P2;Temp;Humidity;BMP_temperature;BMP_pressure;BME280_temperature;BME280_humidity;BME280_pressure;Samples;Min_cycle;Max_cycle;Signal;HPM_P1;HPM_P2
2024/02/02 00:02:05;;;;;;;;;23.00;20.00;;;;;;;;5069782;28;11485;-81
2024/02/02 00:04:34;;;;;;;;;22.50;22.50;;;;;;;;5072611;28;11556;-81
2024/02/02 00:07:01;;;;;;;;;19.75;19.75;;;;;;;;5072354;28;11524;-79
2024/02/02 00:09:28;;;;;;;;;20.25;17.75;;;;;;;;5071791;28;11537;-79
2024/02/02 00:11:58;;;;;;;;;14.50;14.50;;;;;;;;5067349;28;11542;-82
2024/02/02 00:14:26;;;;;;;;;18.50;16.75;;;;;;;;5068451;28;11608;-79
2024/02/02 00:16:53;;;;;;;;;17.00;17.00;;;;;;;;5064536;28;11526;-78
2024/02/02 00:19:21;;;;;;;;;25.50;23.75;;;;;;;;5064009;28;11543;-78
2024/02/02 00:21:50;;;;;;;;;17.00;15.50;;;;;;;;5070084;28;11578;-78
2024/02/02 00:24:17;;;;;;;;;13.50;11.00;;;;;;;;5071324;28;11535;-79
2024/02/02 00:26:44;;;;;;;;;21.25;19.00;;;;;;;;5070964;28;11553;-78
2024/02/02 00:29:11;;;;;;;;;25.75;22.00;;;;;;;;5072323;28;11530;-79
2024/02/02 00:31:39;;;;;;;;;21.00;21.00;;;;;;;;5072781;28;11479;-79
2024/02/02 00:34:06;;;;;;;;;25.75;23.50;;;;;;;;5071164;28;11537;-77
2024/02/02 00:36:33;;;;;;;;;26.75;23.00;;;;;;;;5074181;28;11640;-79
2024/02/02 00:39:02;;;;;;;;;29.25;26.75;;;;;;;;5060343;28;11546;-80
2024/02/02 00:41:29;;;;;;;;;21.25;20.50;;;;;;;;5074017;28;11671;-79
2024/02/02 00:43:57;;;;;;;;;26.75;26.00;;;;;;;;5073032;28;11621;-79
2024/02/02 00:46:24;;;;;;;;;22.75;22.50;;;;;;;;5072316;28;11531;-79
2024/02/02 00:48:51;;;;;;;;;19.50;19.00;;;;;;;;5071244;28;11528;-82
2024/02/02 00:51:19;;;;;;;;;23.25;21.25;;;;;;;;5074318;28;11545;-81
2024/02/02 00:53:46;;;;;;;;;19.00;19.00;;;;;;;;5075175;28;11541;-83
2024/02/02 00:56:15;;;;;;;;;28.00;22.25;;;;;;;;5073118;28;11594;-80
2024/02/02 00:58:42;;;;;;;;;21.00;18.25;;;;;;;;5067526;28;11521;-82
2024/02/02 01:01:09;;;;;;;;;27.75;25.25;;;;;;;;5069645;28;11476;-81
2024/02/02 01:03:37;;;;;;;;;30.50;24.75;;;;;;;;5066048;28;11568;-82
2024/02/02 01:06:04;;;;;;;;;24.00;22.75;;;;;;;;5070110;28;11566;-79
2024/02/02 01:08:32;;;;;;;;;19.00;19.00;;;;;;;;5069635;28;11578;-80
2024/02/02 01:11:02;;;;;;;;;22.25;21.50;;;;;;;;5069770;28;11536;-79
2024/02/02 01:13:31;;;;;;;;;23.00;21.50;;;;;;;;5065800;28;11647;-82
2024/02/02 01:15:58;;;;;;;;;21.50;21.25;;;;;;;;5065598;28;11526;-82
2024/02/02 01:18:26;;;;;;;;;24.25;22.25;;;;;;;;5068887;28;11585;-82
2024/02/02 01:20:53;;;;;;;;;21.25;18.00;;;;;;;;5069870;28;11546;-80
2024/02/02 01:23:20;;;;;;;;;10.50;10.50;;;;;;;;5067793;28;12383;-82
2024/02/02 01:25:48;;;;;;;;;25.75;22.25;;;;;;;;5064731;28;11568;-79
2024/02/02 01:28:15;;;;;;;;;25.00;21.50;;;;;;;;5068777;28;11591;-80
2024/02/02 01:30:44;;;;;;;;;19.00;18.00;;;;;;;;5069205;28;11449;-79
2024/02/02 01:33:11;;;;;;;;;22.25;22.25;;;;;;;;5069481;28;11518;-79
2024/02/02 01:35:40;;;;;;;;;23.25;21.25;;;;;;;;5067822;28;11536;-78
2024/02/02 01:38:08;;;;;;;;;18.50;18.50;;;;;;;;5063976;28;11580;-78
2024/02/02 01:40:35;;;;;;;;;17.50;17.50;;;;;;;;5068010;28;11524;-79
2024/02/02 01:43:03;;;;;;;;;26.25;22.00;;;;;;;;5057329;28;11502;-78
2024/02/02 01:45:31;;;;;;;;;24.50;22.75;;;;;;;;5067846;28;11528;-80
2024/02/02 01:48:00;;;;;;;;;17.25;16.50;;;;;;;;5069044;28;11551;-78
2024/02/02 01:50:27;;;;;;;;;26.75;24.00;;;;;;;;5068631;28;12459;-78
2024/02/02 01:52:54;;;;;;;;;27.75;24.75;;;;;;;;5069507;28;11611;-79
2024/02/02 01:55:22;;;;;;;;;20.00;18.25;;;;;;;;5068218;28;11536;-79
2024/02/02 01:57:49;;;;;;;;;26.00;23.50;;;;;;;;5068887;28;11527;-78
2024/02/02 02:00:17;;;;;;;;;22.25;20.50;;;;;;;;5068202;28;11554;-78
2024/02/02 02:02:44;;;;;;;;;30.25;27.25;;;;;;;;5068843;28;11529;-79
2024/02/02 02:05:14;;;;;;;;;30.50;26.75;;;;;;;;5068688;28;11559;-79
2024/02/02 02:07:44;;;;;;;;;19.75;16.25;;;;;;;;5069537;28;11541;-78
2024/02/02 02:10:12;;;;;;;;;28.25;24.25;;;;;;;;5066958;28;11647;-79
2024/02/02 02:12:40;;;;;;;;;32.00;23.00;;;;;;;;5071623;28;11520;-77
2024/02/02 02:15:09;;;;;;;;;26.25;22.75;;;;;;;;5069803;28;11560;-78
2024/02/02 02:17:36;;;;;;;;;27.50;24.50;;;;;;;;5072166;28;11572;-77
2024/02/02 02:20:08;;;;;;;;;31.50;31.50;;;;;;;;5074962;28;12144;-76
2024/02/02 02:22:36;;;;;;;;;34.33;31.67;;;;;;;;5072013;28;11614;-78
2024/02/02 02:25:04;;;;;;;;;35.00;35.00;;;;;;;;5074743;28;11547;-78
2024/02/02 02:27:31;;;;;;;;;35.00;32.75;;;;;;;;5074541;28;11621;-74
2024/02/02 02:30:00;;;;;;;;;39.00;36.00;;;;;;;;5067292;28;11586;-79
2024/02/02 02:32:27;;;;;;;;;30.33;30.33;;;;;;;;5068957;28;12292;-78
2024/02/02 02:34:54;;;;;;;;;46.00;35.67;;;;;;;;5062083;28;11565;-78
2024/02/02 02:37:21;;;;;;;;;29.50;27.50;;;;;;;;5068426;28;12385;-78
2024/02/02 02:39:50;;;;;;;;;37.75;34.00;;;;;;;;5059160;28;12374;-79
2024/02/02 02:42:18;;;;;;;;;30.75;28.00;;;;;;;;5069821;28;11525;-78
2024/02/02 02:44:45;;;;;;;;;41.50;38.75;;;;;;;;5056470;28;12352;-78
2024/02/02 02:47:13;;;;;;;;;35.00;35.00;;;;;;;;5068515;28;11546;-79
2024/02/02 02:49:40;;;;;;;;;37.50;37.50;;;;;;;;5068114;28;11556;-78
2024/02/02 02:52:08;;;;;;;;;37.33;34.67;;;;;;;;5067759;28;11679;-78
2024/02/02 02:54:35;;;;;;;;;31.75;28.75;;;;;;;;5057598;28;11578;-79
2024/02/02 02:57:05;;;;;;;;;40.25;34.00;;;;;;;;5066983;28;11569;-81
2024/02/02 02:59:34;;;;;;;;;30.50;28.75;;;;;;;;5064078;28;11518;-82
2024/02/02 03:02:02;;;;;;;;;27.50;25.00;;;;;;;;5067115;28;11468;-80
2024/02/02 03:04:33;;;;;;;;;33.50;29.25;;;;;;;;5066694;28;11560;-81
2024/02/02 03:07:01;;;;;;;;;40.75;35.00;;;;;;;;5058504;28;11548;-79
2024/02/02 03:09:29;;;;;;;;;27.75;27.75;;;;;;;;5067905;28;11641;-81
2024/02/02 03:11:57;;;;;;;;;38.75;31.75;;;;;;;;5062991;28;11545;-79
2024/02/02 03:14:26;;;;;;;;;34.75;30.50;;;;;;;;5068003;28;11537;-80
2024/02/02 03:16:53;;;;;;;;;34.75;29.75;;;;;;;;5067682;28;11613;-79
2024/02/02 03:19:20;;;;;;;;;38.00;34.00;;;;;;;;5067660;28;11644;-82
2024/02/02 03:21:48;;;;;;;;;28.33;28.33;;;;;;;;5052245;28;11575;-78
2024/02/02 03:24:15;;;;;;;;;38.00;34.33;;;;;;;;5063196;28;11525;-79
2024/02/02 03:26:43;;;;;;;;;35.67;35.67;;;;;;;;5065764;28;11534;-79
2024/02/02 03:29:10;;;;;;;;;38.67;35.33;;;;;;;;5062256;28;11566;-78
2024/02/02 03:31:40;;;;;;;;;11.50;10.25;;;;;;;;5061319;28;11497;-78
2024/02/02 03:34:07;;;;;;;;;25.00;25.00;;;;;;;;5066838;28;11597;-79
2024/02/02 03:36:34;;;;;;;;;26.25;21.00;;;;;;;;5067104;28;11527;-78
2024/02/02 03:39:02;;;;;;;;;35.00;34.50;;;;;;;;5054399;28;12449;-81
2024/02/02 03:41:29;;;;;;;;;36.67;28.00;;;;;;;;5067983;28;11640;-82
2024/02/02 03:43:56;;;;;;;;;37.33;34.00;;;;;;;;5058209;28;11659;-79
2024/02/02 03:46:24;;;;;;;;;30.50;24.50;;;;;;;;5056307;28;12331;-80
2024/02/02 03:48:54;;;;;;;;;35.33;30.33;;;;;;;;5068996;28;11541;-81
2024/02/02 03:51:22;;;;;;;;;26.50;26.50;;;;;;;;5069180;28;11551;-79
2024/02/02 03:53:49;;;;;;;;;25.33;24.33;;;;;;;;5060203;28;11544;-80
2024/02/02 03:56:17;;;;;;;;;27.33;27.33;;;;;;;;5069476;28;11573;-78
2024/02/02 03:58:44;;;;;;;;;30.00;26.75;;;;;;;;5072209;28;11531;-77
2024/02/02 04:01:11;;;;;;;;;25.50;22.25;;;;;;;;5061238;28;11486;-78
2024/02/02 04:03:39;;;;;;;;;29.25;23.00;;;;;;;;5072757;28;11537;-79
2024/02/02 04:06:08;;;;;;;;;23.00;21.00;;;;;;;;5073998;28;11607;-78
2024/02/02 04:08:35;;;;;;;;;25.75;25.50;;;;;;;;5070191;28;11551;-78
2024/02/02 04:11:03;;;;;;;;;26.25;26.25;;;;;;;;5074951;28;11623;-76
2024/02/02 04:13:30;;;;;;;;;23.00;22.00;;;;;;;;5069467;28;11583;-78
2024/02/02 04:16:00;;;;;;;;;25.50;18.25;;;;;;;;5068284;28;11524;-79
2024/02/02 04:18:28;;;;;;;;;19.00;19.00;;;;;;;;5069250;28;11608;-81
2024/02/02 04:20:55;;;;;;;;;30.25;23.00;;;;;;;;5069952;28;11573;-79
2024/02/02 04:23:25;;;;;;;;;24.00;24.00;;;;;;;;5074491;28;12377;-81
2024/02/02 04:25:53;;;;;;;;;26.00;23.25;;;;;;;;5075054;28;11546;-81
2024/02/02 04:28:20;;;;;;;;;18.75;18.75;;;;;;;;5066232;28;11626;-80
2024/02/02 04:30:48;;;;;;;;;16.50;16.50;;;;;;;;5068205;28;11483;-80
2024/02/02 04:33:15;;;;;;;;;19.75;19.75;;;;;;;;5063145;28;11560;-81
2024/02/02 04:35:42;;;;;;;;;21.75;17.50;;;;;;;;5069596;28;11569;-80
2024/02/02 04:38:10;;;;;;;;;22.25;20.75;;;;;;;;5070243;28;11512;-79
2024/02/02 04:40:38;;;;;;;;;21.00;20.75;;;;;;;;5065087;28;12382;-81
2024/02/02 04:43:06;;;;;;;;;20.25;20.25;;;;;;;;5065602;28;11525;-81
2024/02/02 04:45:33;;;;;;;;;25.00;25.00;;;;;;;;5070072;28;11529;-79
2024/02/02 04:48:00;;;;;;;;;28.25;22.00;;;;;;;;5064494;28;11623;-78
2024/02/02 04:50:28;;;;;;;;;24.75;21.00;;;;;;;;5069640;28;11608;-77
2024/02/02 04:52:55;;;;;;;;;24.50;21.00;;;;;;;;5055769;28;11546;-79
2024/02/02 04:55:23;;;;;;;;;27.25;24.25;;;;;;;;5069773;28;11552;-77
2024/02/02 04:57:51;;;;;;;;;22.75;18.50;;;;;;;;5068813;28;11588;-79
2024/02/02 05:00:20;;;;;;;;;20.25;15.25;;;;;;;;5074496;28;11671;-79
2024/02/02 05:02:48;;;;;;;;;22.00;21.25;;;;;;;;5071404;28;11529;-81
2024/02/02 05:05:18;;;;;;;;;26.00;21.00;;;;;;;;5069904;28;11537;-80
2024/02/02 05:07:48;;;;;;;;;42.33;37.67;;;;;;;;5069617;28;11580;-79
2024/02/02 05:10:15;;;;;;;;;40.33;38.00;;;;;;;;5069411;28;11629;-79
2024/02/02 05:12:43;;;;;;;;;45.67;39.33;;;;;;;;5069244;28;11546;-79
2024/02/02 05:15:12;;;;;;;;;34.00;29.00;;;;;;;;5069498;28;11562;-79
2024/02/02 05:17:39;;;;;;;;;10.25;7.50;;;;;;;;5068275;28;11532;-78
2024/02/02 05:20:07;;;;;;;;;26.00;25.00;;;;;;;;5073547;28;11502;-76
2024/02/02 05:22:35;;;;;;;;;28.50;24.25;;;;;;;;5056353;28;11664;-78
2024/02/02 05:25:02;;;;;;;;;25.00;22.75;;;;;;;;5068451;28;11602;-79
2024/02/02 05:27:29;;;;;;;;;19.00;18.25;;;;;;;;5068709;28;11677;-77
2024/02/02 05:29:57;;;;;;;;;56.67;46.67;;;;;;;;5064336;28;11582;-78
2024/02/02 05:32:26;;;;;;;;;16.00;14.00;;;;;;;;5064153;28;8815;-78
2024/02/02 05:34:53;;;;;;;;;21.00;20.50;;;;;;;;5067920;28;11845;-78
2024/02/02 05:37:20;;;;;;;;;19.00;19.00;;;;;;;;5068984;28;11529;-80
2024/02/02 05:39:47;;;;;;;;;18.00;16.75;;;;;;;;5068745;28;11538;-78
2024/02/02 05:42:15;;;;;;;;;22.25;14.50;;;;;;;;5069664;28;11634;-78
2024/02/02 05:44:45;;;;;;;;;15.50;14.75;;;;;;;;5068755;28;11547;-79
2024/02/02 05:47:12;;;;;;;;;15.75;15.00;;;;;;;;5071103;28;11555;-79
2024/02/02 05:49:42;;;;;;;;;18.75;18.00;;;;;;;;5068361;28;11499;-77
2024/02/02 05:52:10;;;;;;;;;17.00;16.00;;;;;;;;5061283;28;11539;-79
2024/02/02 05:54:37;;;;;;;;;8.75;5.00;;;;;;;;5071086;28;11652;-78
2024/02/02 05:57:05;;;;;;;;;22.50;19.25;;;;;;;;5070466;28;11489;-77
2024/02/02 05:59:32;;;;;;;;;19.50;19.50;;;;;;;;5070793;28;11545;-77
2024/02/02 06:01:59;;;;;;;;;22.00;20.75;;;;;;;;5072583;28;11481;-79
2024/02/02 06:04:27;;;;;;;;;25.25;22.00;;;;;;;;5070712;28;11531;-78
2024/02/02 06:06:56;;;;;;;;;26.25;22.75;;;;;;;;5068309;28;11533;-73
2024/02/02 06:09:23;;;;;;;;;27.00;18.75;;;;;;;;5067814;28;11602;-75
2024/02/02 06:11:50;;;;;;;;;25.00;21.25;;;;;;;;5060006;28;11489;-74
2024/02/02 06:14:18;;;;;;;;;19.75;14.00;;;;;;;;5060028;28;12292;-73
2024/02/02 06:16:47;;;;;;;;;22.75;18.25;;;;;;;;5059173;28;11524;-75
2024/02/02 06:19:14;;;;;;;;;27.00;22.75;;;;;;;;5059208;28;11626;-74
2024/02/02 06:21:43;;;;;;;;;25.75;18.75;;;;;;;;5062375;28;11519;-76
2024/02/02 06:24:12;;;;;;;;;18.25;18.25;;;;;;;;5063654;28;12450;-75
2024/02/02 06:26:39;;;;;;;;;21.25;21.25;;;;;;;;5067558;28;11665;-75
2024/02/02 06:29:07;;;;;;;;;23.50;22.00;;;;;;;;5067286;28;11530;-77
2024/02/02 06:31:34;;;;;;;;;26.50;23.75;;;;;;;;5067560;28;11478;-77
2024/02/02 06:34:04;;;;;;;;;28.00;22.25;;;;;;;;5068099;28;11550;-74
2024/02/02 06:36:34;;;;;;;;;26.75;23.00;;;;;;;;5059278;28;12382;-77
2024/02/02 06:39:06;;;;;;;;;21.00;19.00;;;;;;;;5061855;28;11573;-74
2024/02/02 06:41:35;;;;;;;;;29.75;25.25;;;;;;;;5068095;28;11529;-76
2024/02/02 06:44:03;;;;;;;;;23.25;22.25;;;;;;;;5053204;28;11548;-74
2024/02/02 06:46:33;;;;;;;;;25.25;23.25;;;;;;;;5067240;28;11509;-74
2024/02/02 06:49:02;;;;;;;;;25.50;21.25;;;;;;;;5066968;28;11551;-76
2024/02/02 06:51:29;;;;;;;;;29.75;23.00;;;;;;;;5066113;28;12256;-79
2024/02/02 06:53:57;;;;;;;;;22.00;18.75;;;;;;;;5067032;28;11511;-79
2024/02/02 06:56:36;;;;;;;;;28.00;20.25;;;;;;;;5060375;28;11520;-77
2024/02/02 06:59:05;;;;;;;;;23.25;22.50;;;;;;;;5060280;28;11523;-77
2024/02/02 07:01:32;;;;;;;;;33.50;32.75;;;;;;;;5058995;28;11545;-78
2024/02/02 07:04:01;;;;;;;;;34.75;26.00;;;;;;;;5061122;28;11635;-77
2024/02/02 07:06:31;;;;;;;;;47.00;41.25;;;;;;;;5067452;28;11565;-76
2024/02/02 07:09:01;;;;;;;;;47.75;41.50;;;;;;;;5067169;28;11553;-77
2024/02/02 07:11:54;;;;;;;;;61.00;50.33;;;;;;;;5067087;28;11530;-78
2024/02/02 07:14:45;;;;;;;;;61.33;52.00;;;;;;;;5067336;28;11542;-76
2024/02/02 07:17:32;;;;;;;;;64.67;53.00;;;;;;;;5057682;28;11575;-78
2024/02/02 07:19:59;;;;;;;;;64.67;52.67;;;;;;;;5060714;28;11686;-75
2024/02/02 07:22:34;;;;;;;;;66.67;54.33;;;;;;;;5062952;28;11537;-74
2024/02/02 07:25:01;;;;;;;;;59.00;46.67;;;;;;;;5067958;28;11524;-77
2024/02/02 07:27:57;;;;;;;;;62.67;49.00;;;;;;;;5067383;28;11557;-75
2024/02/02 07:30:47;;;;;;;;;49.50;42.75;;;;;;;;5070462;28;11500;-80
2024/02/02 07:33:35;;;;;;;;;49.75;39.50;;;;;;;;5069370;28;11555;-76
2024/02/02 07:36:02;;;;;;;;;41.25;39.75;;;;;;;;5064747;28;11713;-80
2024/02/02 07:38:52;;;;;;;;;34.25;32.75;;;;;;;;5071255;28;11515;-81
2024/02/02 07:41:22;;;;;;;;;30.75;26.50;;;;;;;;5074498;28;11532;-72
2024/02/02 07:43:51;;;;;;;;;31.50;27.25;;;;;;;;5076072;28;11525;-81
2024/02/02 07:46:21;;;;;;;;;33.75;29.25;;;;;;;;5073632;28;11521;-76
2024/02/02 07:48:49;;;;;;;;;34.50;31.50;;;;;;;;5070240;28;11556;-78
2024/02/02 07:51:18;;;;;;;;;31.00;26.25;;;;;;;;5072122;28;11591;-79
2024/02/02 07:53:46;;;;;;;;;32.50;29.00;;;;;;;;5074016;28;12449;-79
2024/02/02 07:56:13;;;;;;;;;41.50;31.75;;;;;;;;5068992;28;11524;-79
2024/02/02 07:58:41;;;;;;;;;32.25;30.00;;;;;;;;5071319;28;11549;-80
2024/02/02 08:01:10;;;;;;;;;36.00;31.50;;;;;;;;5069295;28;11500;-75
2024/02/02 08:03:37;;;;;;;;;37.25;33.00;;;;;;;;5073608;28;11564;-78
2024/02/02 08:06:05;;;;;;;;;37.75;30.00;;;;;;;;5071640;28;11568;-83
2024/02/02 08:08:35;;;;;;;;;33.75;29.50;;;;;;;;5072151;28;11533;-80
2024/02/02 08:11:03;;;;;;;;;37.00;31.25;;;;;;;;5075030;28;11503;-72
2024/02/02 08:13:33;;;;;;;;;38.25;30.50;;;;;;;;5081255;28;11617;-71
2024/02/02 08:16:00;;;;;;;;;30.75;30.00;;;;;;;;5073606;28;11544;-78
2024/02/02 08:18:30;;;;;;;;;25.75;24.00;;;;;;;;5070699;28;11641;-80
2024/02/02 08:20:57;;;;;;;;;16.75;15.00;;;;;;;;5068123;28;11588;-75
2024/02/02 08:23:26;;;;;;;;;18.25;18.25;;;;;;;;5070606;28;11524;-80
2024/02/02 08:25:53;;;;;;;;;21.25;21.25;;;;;;;;5069833;28;11539;-82
2024/02/02 08:28:20;;;;;;;;;19.50;17.50;;;;;;;;5068473;28;11516;-77
2024/02/02 08:30:48;;;;;;;;;17.25;17.25;;;;;;;;5069951;28;11516;-76
2024/02/02 08:33:15;;;;;;;;;27.00;22.50;;;;;;;;5066525;28;11609;-77
2024/02/02 08:35:44;;;;;;;;;29.25;23.00;;;;;;;;5070153;28;11604;-77
2024/02/02 08:38:14;;;;;;;;;19.00;19.00;;;;;;;;5068921;28;11534;-76
2024/02/02 08:40:43;;;;;;;;;19.50;14.75;;;;;;;;5069177;28;11563;-80
2024/02/02 08:43:14;;;;;;;;;27.75;23.00;;;;;;;;5067815;28;11526;-74
2024/02/02 08:46:12;;;;;;;;;16.00;13.75;;;;;;;;5068339;28;11554;-76
2024/02/02 08:48:41;;;;;;;;;28.50;22.00;;;;;;;;5069761;28;12411;-79
2024/02/02 08:51:51;;;;;;;;;23.00;21.50;;;;;;;;5069546;28;11593;-74
2024/02/02 08:54:37;;;;;;;;;18.25;18.00;;;;;;;;5068410;28;11630;-77
2024/02/02 08:57:32;;;;;;;;;19.00;14.25;;;;;;;;5069719;28;11546;-78
2024/02/02 09:00:05;;;;;;;;;23.00;19.50;;;;;;;;5023207;28;11510;-78
2024/02/02 09:03:00;;;;;;;;;21.00;21.00;;;;;;;;5069331;28;11533;-79
2024/02/02 09:05:28;;;;;;;;;19.75;18.75;;;;;;;;5051057;28;11534;-79
2024/02/02 09:08:10;;;;;;;;;14.50;13.25;;;;;;;;5069337;28;11641;-79
2024/02/02 09:11:25;;;;;;;;;20.75;19.00;;;;;;;;5066247;28;11605;-79
2024/02/02 09:14:08;;;;;;;;;21.50;20.00;;;;;;;;4987200;28;11561;-81
2024/02/02 09:16:43;;;;;;;;;17.00;17.00;;;;;;;;5067465;28;11569;-80
2024/02/02 09:19:32;;;;;;;;;25.00;23.25;;;;;;;;5069357;28;12774;-79
2024/02/02 09:22:01;;;;;;;;;22.00;13.00;;;;;;;;5057834;28;11542;-76
2024/02/02 09:24:41;;;;;;;;;26.00;21.25;;;;;;;;5067796;28;11611;-81
2024/02/02 09:27:16;;;;;;;;;18.25;18.25;;;;;;;;5070304;28;11524;-81
2024/02/02 09:29:48;;;;;;;;;16.75;15.00;;;;;;;;5070063;28;11566;-74
2024/02/02 09:32:16;;;;;;;;;18.50;17.75;;;;;;;;5072378;28;11561;-82
2024/02/02 09:34:44;;;;;;;;;21.50;21.25;;;;;;;;5069801;28;11614;-79
2024/02/02 09:37:15;;;;;;;;;22.25;18.75;;;;;;;;5071883;28;11554;-82
2024/02/02 09:39:59;;;;;;;;;21.50;21.25;;;;;;;;5073298;28;11512;-78
2024/02/02 09:43:01;;;;;;;;;20.75;20.75;;;;;;;;5062648;28;11580;-79
2024/02/02 09:45:46;;;;;;;;;22.50;21.75;;;;;;;;5068636;28;12319;-78
2024/02/02 09:48:22;;;;;;;;;17.00;15.00;;;;;;;;5068619;28;11533;-73
2024/02/02 09:50:56;;;;;;;;;23.25;19.50;;;;;;;;5070181;28;12309;-75
2024/02/02 09:53:36;;;;;;;;;22.75;19.50;;;;;;;;5059466;28;12312;-74
2024/02/02 09:56:11;;;;;;;;;21.75;19.25;;;;;;;;5066655;28;11542;-76
2024/02/02 09:58:47;;;;;;;;;23.25;18.25;;;;;;;;5067564;28;11542;-75
2024/02/02 10:01:25;;;;;;;;;24.00;21.00;;;;;;;;5066463;28;11508;-77
2024/02/02 10:04:04;;;;;;;;;19.25;17.50;;;;;;;;5068131;28;12370;-76
2024/02/02 10:06:41;;;;;;;;;21.25;19.25;;;;;;;;5057503;28;11659;-80
2024/02/02 10:09:23;;;;;;;;;19.50;16.00;;;;;;;;5067422;28;11554;-75
2024/02/02 10:12:12;;;;;;;;;26.00;24.50;;;;;;;;5068471;28;11507;-75
2024/02/02 10:15:21;;;;;;;;;16.25;15.25;;;;;;;;5057791;28;12358;-76
2024/02/02 10:18:06;;;;;;;;;18.25;14.50;;;;;;;;5011158;28;11606;-79
2024/02/02 10:20:38;;;;;;;;;15.75;14.75;;;;;;;;5066871;28;11505;-74
2024/02/02 10:23:33;;;;;;;;;20.75;19.50;;;;;;;;5068118;28;11474;-78
2024/02/02 10:26:39;;;;;;;;;17.00;15.25;;;;;;;;5023453;28;11521;-73
2024/02/02 10:29:27;;;;;;;;;18.00;17.75;;;;;;;;5066897;28;12208;-73
2024/02/02 10:32:11;;;;;;;;;17.00;14.75;;;;;;;;5065011;28;11470;-77
2024/02/02 10:34:50;;;;;;;;;15.25;15.25;;;;;;;;5066523;28;11531;-76
2024/02/02 10:37:28;;;;;;;;;17.00;17.00;;;;;;;;5068579;28;11492;-74
2024/02/02 10:40:22;;;;;;;;;18.50;18.50;;;;;;;;5068001;28;12203;-80
2024/02/02 10:43:09;;;;;;;;;21.75;19.75;;;;;;;;5063130;28;11670;-78
2024/02/02 10:45:42;;;;;;;;;21.50;19.50;;;;;;;;5058164;28;11479;-80
2024/02/02 10:48:31;;;;;;;;;23.50;18.75;;;;;;;;5066594;28;11480;-78
2024/02/02 10:51:06;;;;;;;;;18.75;16.75;;;;;;;;5068134;28;11473;-78
2024/02/02 10:53:41;;;;;;;;;23.00;19.75;;;;;;;;5061537;28;11521;-76
2024/02/02 10:56:19;;;;;;;;;22.00;22.00;;;;;;;;5070436;28;11472;-77
2024/02/02 10:58:56;;;;;;;;;24.75;19.50;;;;;;;;5073597;28;11490;-75
2024/02/02 11:01:29;;;;;;;;;17.00;17.00;;;;;;;;5075855;28;11437;-79
2024/02/02 11:04:04;;;;;;;;;18.75;17.75;;;;;;;;5067811;28;11484;-76
2024/02/02 11:06:40;;;;;;;;;23.75;23.50;;;;;;;;5071798;28;11549;-76
2024/02/02 11:09:14;;;;;;;;;26.25;23.75;;;;;;;;5072723;28;11504;-76
2024/02/02 11:11:45;;;;;;;;;19.75;19.25;;;;;;;;5071179;28;11466;-79
2024/02/02 11:14:21;;;;;;;;;21.75;21.00;;;;;;;;5068159;28;11462;-78
2024/02/02 11:17:01;;;;;;;;;22.00;21.25;;;;;;;;5072382;28;11577;-83
2024/02/02 11:19:44;;;;;;;;;25.00;21.00;;;;;;;;5074600;28;11463;-83
2024/02/02 11:22:23;;;;;;;;;22.00;22.00;;;;;;;;5070238;28;11512;-78
2024/02/02 11:25:03;;;;;;;;;20.75;17.50;;;;;;;;5055827;28;11488;-80
2024/02/02 11:27:42;;;;;;;;;26.00;24.00;;;;;;;;5068217;28;11465;-79
2024/02/02 11:30:27;;;;;;;;;31.25;23.50;;;;;;;;5069940;28;11477;-79
2024/02/02 11:33:15;;;;;;;;;24.75;24.00;;;;;;;;5059537;28;11491;-75
2024/02/02 11:35:56;;;;;;;;;20.75;17.50;;;;;;;;5065850;28;11555;-78
2024/02/02 11:38:33;;;;;;;;;24.25;20.50;;;;;;;;5066640;28;11477;-73
2024/02/02 11:41:02;;;;;;;;;25.50;25.50;;;;;;;;5066708;28;11576;-76
2024/02/02 11:43:32;;;;;;;;;13.75;13.75;;;;;;;;5057089;28;11592;-74
2024/02/02 11:46:01;;;;;;;;;24.00;21.50;;;;;;;;5060962;28;11451;-73
2024/02/02 11:48:36;;;;;;;;;23.25;21.25;;;;;;;;5066745;28;11630;-74
2024/02/02 11:51:03;;;;;;;;;22.25;20.75;;;;;;;;5065049;28;11508;-75
2024/02/02 11:53:37;;;;;;;;;31.50;24.75;;;;;;;;5054309;28;11432;-74
2024/02/02 11:56:08;;;;;;;;;24.50;23.75;;;;;;;;5066349;28;11485;-76
2024/02/02 11:58:38;;;;;;;;;25.50;23.00;;;;;;;;5067028;28;12359;-76
2024/02/02 12:01:23;;;;;;;;;27.00;22.25;;;;;;;;5066277;28;11518;-76
2024/02/02 12:04:17;;;;;;;;;26.00;26.00;;;;;;;;5066601;28;11619;-73
2024/02/02 12:06:50;;;;;;;;;24.00;19.50;;;;;;;;5058719;28;11541;-74
2024/02/02 12:09:25;;;;;;;;;22.25;18.50;;;;;;;;5068859;28;11452;-72
2024/02/02 12:11:54;;;;;;;;;22.75;22.00;;;;;;;;5069727;28;11499;-73
2024/02/02 12:14:32;;;;;;;;;20.50;19.00;;;;;;;;5068777;28;11546;-72
2024/02/02 12:17:00;;;;;;;;;22.25;22.25;;;;;;;;5067460;28;11488;-74
2024/02/02 12:19:29;;;;;;;;;15.00;10.75;;;;;;;;5070643;28;11457;-75
2024/02/02 12:21:56;;;;;;;;;19.75;19.25;;;;;;;;5068457;28;11448;-77
2024/02/02 12:24:24;;;;;;;;;18.75;18.50;;;;;;;;5069585;28;11474;-78
2024/02/02 12:26:51;;;;;;;;;20.75;20.75;;;;;;;;5068982;28;11487;-76
2024/02/02 12:29:19;;;;;;;;;22.00;20.50;;;;;;;;5066905;28;11547;-76
2024/02/02 12:31:46;;;;;;;;;16.00;13.75;;;;;;;;5066498;28;11570;-75
2024/02/02 12:34:16;;;;;;;;;18.50;17.00;;;;;;;;5069308;28;11477;-75
2024/02/02 12:36:45;;;;;;;;;24.75;18.50;;;;;;;;5069763;28;11483;-78
2024/02/02 12:39:12;;;;;;;;;21.50;20.00;;;;;;;;5070101;28;11475;-74
2024/02/02 12:41:40;;;;;;;;;24.50;24.00;;;;;;;;5068094;28;11580;-73
2024/02/02 12:44:08;;;;;;;;;20.00;18.75;;;;;;;;5067638;28;11478;-74
2024/02/02 12:46:44;;;;;;;;;22.75;19.25;;;;;;;;5068662;28;11493;-76
2024/02/02 12:49:11;;;;;;;;;19.00;16.25;;;;;;;;5068379;28;11483;-76
2024/02/02 12:51:39;;;;;;;;;21.50;20.75;;;;;;;;5064143;28;11472;-79
2024/02/02 12:54:10;;;;;;;;;23.00;21.50;;;;;;;;5062013;28;11468;-74
2024/02/02 12:56:37;;;;;;;;;24.00;20.50;;;;;;;;5069457;28;12268;-80
2024/02/02 12:59:05;;;;;;;;;18.00;18.00;;;;;;;;5069689;28;11578;-74
2024/02/02 13:01:32;;;;;;;;;28.50;24.25;;;;;;;;5067901;28;12346;-79
2024/02/02 13:04:00;;;;;;;;;22.00;21.00;;;;;;;;5067847;28;11563;-77
2024/02/02 13:06:31;;;;;;;;;21.75;21.75;;;;;;;;5059168;28;11592;-76
2024/02/02 13:09:17;;;;;;;;;21.00;20.00;;;;;;;;5069132;28;11524;-76
2024/02/02 13:11:46;;;;;;;;;24.00;21.75;;;;;;;;5070256;28;11521;-76
2024/02/02 13:14:14;;;;;;;;;20.50;17.25;;;;;;;;5071530;28;11468;-81
2024/02/02 13:16:42;;;;;;;;;27.25;21.75;;;;;;;;5072338;28;11488;-79
2024/02/02 13:19:31;;;;;;;;;23.50;20.50;;;;;;;;5071083;28;11522;-75
2024/02/02 13:22:02;;;;;;;;;17.25;12.50;;;;;;;;5072386;28;11487;-76
2024/02/02 13:24:32;;;;;;;;;23.00;21.50;;;;;;;;5061060;28;11570;-78
2024/02/02 13:27:06;;;;;;;;;17.75;17.75;;;;;;;;5067908;28;11461;-73
2024/02/02 13:29:36;;;;;;;;;18.50;18.50;;;;;;;;5061216;28;11473;-73
2024/02/02 13:32:07;;;;;;;;;25.25;20.00;;;;;;;;5068758;28;11529;-73
2024/02/02 13:34:35;;;;;;;;;20.50;20.25;;;;;;;;5069365;28;11481;-72
2024/02/02 13:37:05;;;;;;;;;12.25;9.00;;;;;;;;5068420;28;11475;-73
2024/02/02 13:39:34;;;;;;;;;16.25;15.50;;;;;;;;5069594;28;11431;-76
2024/02/02 13:42:04;;;;;;;;;19.75;18.25;;;;;;;;5070113;28;11482;-73
2024/02/02 13:44:34;;;;;;;;;20.00;17.25;;;;;;;;5073398;28;12224;-77
2024/02/02 13:47:01;;;;;;;;;23.25;20.00;;;;;;;;5068471;28;11514;-73
2024/02/02 13:49:32;;;;;;;;;23.50;21.75;;;;;;;;5056617;28;11571;-74
2024/02/02 13:52:05;;;;;;;;;20.75;20.00;;;;;;;;5063139;28;12402;-77
2024/02/02 13:54:35;;;;;;;;;18.75;16.00;;;;;;;;5062187;28;11622;-75
2024/02/02 13:57:02;;;;;;;;;21.00;17.25;;;;;;;;5062462;28;11508;-74
2024/02/02 13:59:33;;;;;;;;;12.25;12.25;;;;;;;;5058164;28;11410;-73
2024/02/02 14:02:05;;;;;;;;;16.00;14.75;;;;;;;;5066958;28;11441;-79
2024/02/02 14:04:33;;;;;;;;;12.50;12.50;;;;;;;;5068172;28;11452;-77
2024/02/02 14:07:00;;;;;;;;;22.00;19.50;;;;;;;;5067725;28;11281;-74
2024/02/02 14:09:27;;;;;;;;;19.50;15.75;;;;;;;;5068193;28;12266;-75
2024/02/02 14:12:06;;;;;;;;;19.00;17.50;;;;;;;;5067803;28;11289;-73
2024/02/02 14:14:33;;;;;;;;;20.75;16.75;;;;;;;;5060724;28;11465;-73
2024/02/02 14:17:02;;;;;;;;;17.25;17.25;;;;;;;;5067775;28;11334;-73
2024/02/02 14:19:30;;;;;;;;;17.00;16.00;;;;;;;;5069463;28;11590;-72
2024/02/02 14:22:05;;;;;;;;;14.50;13.50;;;;;;;;5069864;28;11199;-74
2024/02/02 14:24:32;;;;;;;;;14.75;14.75;;;;;;;;5069871;28;11208;-74
2024/02/02 14:27:03;;;;;;;;;22.75;20.75;;;;;;;;5067891;28;11036;-76
2024/02/02 14:29:41;;;;;;;;;15.50;15.00;;;;;;;;5058183;28;11614;-73
2024/02/02 14:32:09;;;;;;;;;17.75;15.75;;;;;;;;5073779;28;11142;-75
2024/02/02 14:34:36;;;;;;;;;19.00;19.00;;;;;;;;5068552;28;11263;-72
2024/02/02 14:37:04;;;;;;;;;21.75;15.00;;;;;;;;5067459;28;11274;-75
2024/02/02 14:39:31;;;;;;;;;20.75;17.25;;;;;;;;5068854;28;11469;-78
2024/02/02 14:42:00;;;;;;;;;20.25;14.75;;;;;;;;5060847;28;11212;-81